Kaami — C6VO9 — position and weather

sailwx.info

Track history (hours):
 
Tides and Currents Weather Stations Pressure Air Temp Water Temp Dewpoint Dewpoint Depression Visibility Wind Speed Wind Dir Waves Ship Positions

Kaami

Last reported at 2016-Jun-25 06:09 UTC. Time now 2016-Jun-27 00:34 UTC.
Position N 53°22' E 002°54'.

Length 90 m; draft 3.6 m.

Type: Cargo ship. MMSI: 308542000.

Date/timePositionNaut miles runAvg speedWind from/ knotsBaromVisibWave heightAir tempDewpointWater temp
2016-Jun-25 06:09N 53°22' E 002°54'3111.3
2016-Jun-25 03:27N 52°55' E 002°33'46 8.9
2016-Jun-24 22:18N 52°13' E 002°02'7 9.1
2016-Jun-24 21:33N 52°07' E 001°57'1010.1
2016-Jun-24 20:33N 51°58' E 001°50'9 9.3
2016-Jun-24 19:33N 51°50' E 001°42'1111.2
2016-Jun-24 18:33N 51°45' E 001°26'1212.4
2016-Jun-24 17:33N 51°36' E 001°12'1412.4
2016-Jun-24 16:27N 51°29' E 000°53'7 8.2
2016-Jun-24 15:33N 51°25' E 000°43'2 2.3
2016-Jun-24 14:33N 51°23' E 000°46'0 0.0
2016-Jun-24 13:33N 51°23' E 000°46'0 0.0
2016-Jun-24 12:33N 51°23' E 000°46'0 0.0
2016-Jun-24 11:29N 51°23' E 000°46'0 0.0
2016-Jun-24 10:31N 51°23' E 000°46'0 0.0
2016-Jun-24 09:25N 51°23' E 000°46'0 0.0
2016-Jun-24 08:33N 51°23' E 000°46'0 0.0
2016-Jun-24 07:33N 51°23' E 000°46'0 0.0
2016-Jun-24 04:33N 51°23' E 000°46'0 0.0
2016-Jun-24 03:32N 51°23' E 000°46'0 0.0
2016-Jun-24 02:33N 51°23' E 000°46'0 0.0
2016-Jun-24 01:33N 51°23' E 000°46'0 0.0
2016-Jun-24 00:28N 51°23' E 000°46'0 0.0
2016-Jun-23 23:30N 51°23' E 000°46'0 0.0
2016-Jun-23 21:08N 51°23' E 000°46'0 0.0
2016-Jun-23 20:24N 51°23' E 000°46'0 0.0
2016-Jun-23 19:21N 51°23' E 000°46'0 0.0
2016-Jun-23 18:33N 51°23' E 000°46'0 0.0
2016-Jun-23 17:33N 51°23' E 000°46'0 0.0
2016-Jun-23 16:33N 51°23' E 000°46'0 0.0
2016-Jun-23 15:32N 51°23' E 000°46'0 0.0
2016-Jun-23 14:33N 51°23' E 000°46'0 0.0
2016-Jun-23 13:33N 51°23' E 000°46'0 0.0
2016-Jun-23 12:33N 51°23' E 000°46'2 2.1
2016-Jun-23 11:33N 51°25' E 000°44'4 4.3
2016-Jun-23 10:33N 51°28' E 000°48'7 7.3
2016-Jun-23 09:33N 51°31' E 000°59'8 7.6
2016-Jun-23 08:32N 51°35' E 001°10'5 5.4
2016-Jun-23 07:33N 51°39' E 001°16'11 5.4
2016-Jun-23 05:33N 51°47' E 001°28'6 5.8
2016-Jun-23 04:33N 51°49' E 001°36'5 5.5
2016-Jun-23 03:33N 51°50' E 001°45'5 5.2
2016-Jun-23 02:33N 51°50' E 001°53'6 5.9
2016-Jun-23 01:33N 51°53' E 002°02'129 5.8
2016-Jun-22 03:17N 53°24' E 004°33'13 6.9
2016-Jun-22 01:26N 53°32' E 004°50'7 7.9
2016-Jun-22 00:33N 53°34' E 005°01'8 7.9
2016-Jun-21 23:33N 53°37' E 005°13'7 7.2
2016-Jun-21 22:33N 53°39' E 005°25'6 6.3
2016-Jun-21 21:33N 53°41' E 005°35'6 6.2
2016-Jun-21 20:33N 53°42' E 005°45'6 6.3
2016-Jun-21 19:33N 53°44' E 005°55'6 5.7
2016-Jun-21 18:33N 53°46' E 006°05'6 6.2
2016-Jun-21 17:33N 53°47' E 006°15'7 6.9
2016-Jun-21 16:33N 53°42' E 006°22'7 7.2
2016-Jun-21 15:33N 53°37' E 006°31'1110.9
2016-Jun-21 14:33N 53°31' E 006°46'5 5.1
2016-Jun-21 13:32N 53°27' E 006°51'0 0.0
2016-Jun-21 12:32N 53°27' E 006°51'0 0.0
2016-Jun-21 11:32N 53°27' E 006°51'0 0.0
2016-Jun-21 10:32N 53°27' E 006°51'0 0.0
2016-Jun-21 09:32N 53°27' E 006°51'0 0.0
2016-Jun-21 08:32N 53°27' E 006°51'0 0.0
2016-Jun-21 07:32N 53°27' E 006°51'0 0.0
2016-Jun-21 04:32N 53°27' E 006°51'0 0.0
2016-Jun-21 03:32N 53°27' E 006°51'0 0.0
2016-Jun-21 02:32N 53°27' E 006°51'0 0.0
2016-Jun-21 01:32N 53°27' E 006°51'0 0.0
2016-Jun-21 00:32N 53°27' E 006°51'0 0.0
2016-Jun-20 23:32N 53°27' E 006°51'0 0.0
2016-Jun-20 22:32N 53°27' E 006°51'0 0.0
2016-Jun-20 21:32N 53°27' E 006°51'0 0.0
2016-Jun-20 20:32N 53°27' E 006°51'0 0.0
2016-Jun-20 19:32N 53°27' E 006°51'0 0.0
2016-Jun-20 18:32N 53°27' E 006°51'4 3.9
2016-Jun-20 17:33N 53°25' E 006°56'5 5.3
2016-Jun-20 16:34N 53°20' E 006°56'0 0.4
2016-Jun-20 15:32N 53°20' E 006°56'0 0.0
2016-Jun-20 14:32N 53°20' E 006°56'0 0.0
2016-Jun-20 13:32N 53°20' E 006°56'0 0.0
2016-Jun-20 12:32N 53°20' E 006°56'0 0.0
2016-Jun-20 11:32N 53°20' E 006°56'0 0.0
2016-Jun-20 10:32N 53°20' E 006°56'0 0.0
2016-Jun-20 09:32N 53°20' E 006°56'0 0.0
2016-Jun-20 08:32N 53°20' E 006°56'0 0.0
2016-Jun-20 07:32N 53°20' E 006°56'0 0.0
2016-Jun-20 06:29N 53°20' E 006°56'0 0.0
2016-Jun-20 05:32N 53°20' E 006°56'0 0.0
2016-Jun-20 04:32N 53°20' E 006°56'0 0.0
2016-Jun-20 03:32N 53°20' E 006°56'0 0.0
2016-Jun-20 02:32N 53°20' E 006°56'0 0.0
2016-Jun-20 01:32N 53°20' E 006°56'0 0.0
2016-Jun-20 00:32N 53°20' E 006°56'0 0.0
2016-Jun-19 23:31N 53°20' E 006°56'0 0.0
2016-Jun-19 22:31N 53°20' E 006°56'0 0.0
2016-Jun-19 21:31N 53°20' E 006°56'0 0.0
2016-Jun-19 20:31N 53°20' E 006°56'0 0.0
2016-Jun-19 19:31N 53°20' E 006°56'0 0.0
2016-Jun-19 18:31N 53°20' E 006°56'0 0.0
2016-Jun-19 17:31N 53°20' E 006°56'0 0.0
2016-Jun-19 16:31N 53°20' E 006°56'0 0.0
2016-Jun-19 15:31N 53°20' E 006°56'0 0.0
2016-Jun-19 14:31N 53°20' E 006°56'0 0.0
2016-Jun-19 13:31N 53°20' E 006°56'0 0.0
2016-Jun-19 12:31N 53°20' E 006°56'0 0.0
2016-Jun-19 11:31N 53°20' E 006°56'0 0.0
2016-Jun-19 10:31N 53°20' E 006°56'0 0.0
2016-Jun-19 09:31N 53°20' E 006°56'0 0.0
2016-Jun-19 08:31N 53°20' E 006°56'0 0.0
2016-Jun-19 07:31N 53°20' E 006°56'0 0.0
2016-Jun-19 06:31N 53°20' E 006°56'0 0.0
2016-Jun-19 05:31N 53°20' E 006°56'0 0.0
2016-Jun-19 04:31N 53°20' E 006°56'0 0.0
2016-Jun-19 03:31N 53°20' E 006°56'0 0.0
2016-Jun-19 02:31N 53°20' E 006°56'0 0.0
2016-Jun-19 01:31N 53°20' E 006°56'0 0.0
2016-Jun-19 00:31N 53°20' E 006°56'0 0.0
2016-Jun-18 23:31N 53°20' E 006°56'0 0.0
2016-Jun-18 22:31N 53°20' E 006°56'0 0.0
2016-Jun-18 21:28N 53°20' E 006°56'0 0.0
2016-Jun-18 20:31N 53°20' E 006°56'0 0.0
2016-Jun-18 19:31N 53°20' E 006°56'0 0.0
2016-Jun-18 18:31N 53°20' E 006°56'0 0.0
2016-Jun-18 17:31N 53°20' E 006°56'0 0.0
2016-Jun-18 16:31N 53°20' E 006°56'0 0.0
2016-Jun-18 15:31N 53°20' E 006°56'0 0.0
2016-Jun-18 14:31N 53°20' E 006°56'0 0.0
2016-Jun-18 13:34N 53°20' E 006°56'0 0.0
2016-Jun-18 12:33N 53°20' E 006°56'0 0.0
2016-Jun-18 11:33N 53°20' E 006°56'0 0.0
2016-Jun-18 10:33N 53°20' E 006°56'0 0.0
2016-Jun-18 09:33N 53°20' E 006°56'0 0.0
2016-Jun-18 08:33N 53°20' E 006°56'0 0.0
2016-Jun-18 07:33N 53°20' E 006°56'0 0.0
2016-Jun-18 06:33N 53°20' E 006°56'0 0.0
2016-Jun-18 05:33N 53°20' E 006°56'0 0.0
2016-Jun-18 04:30N 53°20' E 006°56'0 0.0
2016-Jun-18 03:33N 53°20' E 006°56'0 0.0
2016-Jun-18 02:33N 53°20' E 006°56'0 0.0
2016-Jun-18 01:30N 53°20' E 006°56'0 0.0
2016-Jun-18 00:30N 53°20' E 006°56'0 0.0
2016-Jun-17 23:33N 53°20' E 006°56'0 0.0
2016-Jun-17 22:33N 53°20' E 006°56'0 0.0
2016-Jun-17 21:33N 53°20' E 006°56'0 0.0
2016-Jun-17 20:33N 53°20' E 006°56'0 0.0
2016-Jun-17 19:33N 53°20' E 006°56'0 0.0
2016-Jun-17 18:33N 53°20' E 006°56'0 0.0
2016-Jun-17 17:33N 53°20' E 006°56'0 0.0
2016-Jun-17 16:33N 53°20' E 006°56'0 0.0
2016-Jun-17 15:30N 53°20' E 006°56'0 0.0
2016-Jun-17 14:33N 53°20' E 006°56'0 0.0
2016-Jun-17 13:33N 53°20' E 006°56'0 0.0
2016-Jun-17 12:33N 53°20' E 006°56'0 0.0
2016-Jun-17 11:33N 53°20' E 006°56'0 0.0
2016-Jun-17 10:33N 53°20' E 006°56'0 0.0
2016-Jun-17 09:33N 53°20' E 006°56'0 0.0
2016-Jun-17 08:30N 53°20' E 006°56'0 0.0
2016-Jun-17 07:33N 53°20' E 006°56'0 0.0
2016-Jun-17 06:33N 53°20' E 006°56'0 0.0
2016-Jun-17 05:33N 53°20' E 006°56'0 0.0
2016-Jun-17 04:33N 53°20' E 006°56'0 0.0
2016-Jun-17 03:30N 53°20' E 006°56'0 0.0
2016-Jun-17 02:30N 53°20' E 006°56'0 0.0
2016-Jun-17 01:32N 53°20' E 006°56'0 0.0
2016-Jun-17 00:32N 53°20' E 006°56'0 0.0
2016-Jun-16 23:32N 53°20' E 006°56'0 0.0
2016-Jun-16 22:32N 53°20' E 006°56'0 0.0
2016-Jun-16 21:32N 53°20' E 006°56'0 0.0
2016-Jun-16 20:32N 53°20' E 006°56'0 0.0
2016-Jun-16 19:32N 53°20' E 006°56'0 0.0
2016-Jun-16 18:32N 53°20' E 006°56'0 0.0
2016-Jun-16 17:32N 53°20' E 006°56'0 0.0
2016-Jun-16 16:32N 53°20' E 006°56'0 0.0
2016-Jun-16 15:32N 53°20' E 006°56'0 0.0
2016-Jun-16 14:32N 53°20' E 006°56'0 0.0
2016-Jun-16 13:32N 53°20' E 006°56'0 0.0
2016-Jun-16 12:32N 53°20' E 006°56'0 0.0
2016-Jun-16 11:32N 53°20' E 006°56'0 0.0
2016-Jun-16 10:26N 53°20' E 006°56'0 0.2
2016-Jun-16 09:32N 53°20' E 006°56'3 3.4
2016-Jun-16 08:33N 53°23' E 006°58'10 9.7
2016-Jun-16 07:33N 53°30' E 006°47'8 7.7
2016-Jun-16 06:34N 53°35' E 006°37'9 9.0
2016-Jun-16 05:34N 53°37' E 006°22'8 7.7
2016-Jun-16 04:33N 53°45' E 006°20'9 9.2
2016-Jun-16 03:33N 53°54' E 006°21'9 9.3
2016-Jun-16 02:33N 54°03' E 006°20'10 9.6
2016-Jun-16 01:30N 54°13' E 006°19'  
Track history (hours):
 
Tides and Currents Weather Stations Pressure Air Temp Water Temp Dewpoint Dewpoint Depression Visibility Wind Speed Wind Dir Waves Ship Positions

Kaami

Last reported at 2016-Jun-25 06:09 UTC. Time now 2016-Jun-27 00:34 UTC.
Position N 53°22' E 002°54'.

Length 90 m; draft 3.6 m.

Type: Cargo ship. MMSI: 308542000.

Date/timePositionNaut miles runAvg speedWind from/ knotsBaromVisibWave heightAir tempDewpointWater temp
2016-Jun-25 06:09N 53°22' E 002°54'3111.3
2016-Jun-25 03:27N 52°55' E 002°33'46 8.9
2016-Jun-24 22:18N 52°13' E 002°02'7 9.1
2016-Jun-24 21:33N 52°07' E 001°57'1010.1
2016-Jun-24 20:33N 51°58' E 001°50'9 9.3
2016-Jun-24 19:33N 51°50' E 001°42'1111.2
2016-Jun-24 18:33N 51°45' E 001°26'1212.4
2016-Jun-24 17:33N 51°36' E 001°12'1412.4
2016-Jun-24 16:27N 51°29' E 000°53'7 8.2
2016-Jun-24 15:33N 51°25' E 000°43'2 2.3
2016-Jun-24 14:33N 51°23' E 000°46'0 0.0
2016-Jun-24 13:33N 51°23' E 000°46'0 0.0
2016-Jun-24 12:33N 51°23' E 000°46'0 0.0
2016-Jun-24 11:29N 51°23' E 000°46'0 0.0
2016-Jun-24 10:31N 51°23' E 000°46'0 0.0
2016-Jun-24 09:25N 51°23' E 000°46'0 0.0
2016-Jun-24 08:33N 51°23' E 000°46'0 0.0
2016-Jun-24 07:33N 51°23' E 000°46'0 0.0
2016-Jun-24 04:33N 51°23' E 000°46'0 0.0
2016-Jun-24 03:32N 51°23' E 000°46'0 0.0
2016-Jun-24 02:33N 51°23' E 000°46'0 0.0
2016-Jun-24 01:33N 51°23' E 000°46'0 0.0
2016-Jun-24 00:28N 51°23' E 000°46'0 0.0
2016-Jun-23 23:30N 51°23' E 000°46'0 0.0
2016-Jun-23 21:08N 51°23' E 000°46'0 0.0
2016-Jun-23 20:24N 51°23' E 000°46'0 0.0
2016-Jun-23 19:21N 51°23' E 000°46'0 0.0
2016-Jun-23 18:33N 51°23' E 000°46'0 0.0
2016-Jun-23 17:33N 51°23' E 000°46'0 0.0
2016-Jun-23 16:33N 51°23' E 000°46'0 0.0
2016-Jun-23 15:32N 51°23' E 000°46'0 0.0
2016-Jun-23 14:33N 51°23' E 000°46'0 0.0
2016-Jun-23 13:33N 51°23' E 000°46'0 0.0
2016-Jun-23 12:33N 51°23' E 000°46'2 2.1
2016-Jun-23 11:33N 51°25' E 000°44'4 4.3
2016-Jun-23 10:33N 51°28' E 000°48'7 7.3
2016-Jun-23 09:33N 51°31' E 000°59'8 7.6
2016-Jun-23 08:32N 51°35' E 001°10'5 5.4
2016-Jun-23 07:33N 51°39' E 001°16'11 5.4
2016-Jun-23 05:33N 51°47' E 001°28'6 5.8
2016-Jun-23 04:33N 51°49' E 001°36'5 5.5
2016-Jun-23 03:33N 51°50' E 001°45'5 5.2
2016-Jun-23 02:33N 51°50' E 001°53'6 5.9
2016-Jun-23 01:33N 51°53' E 002°02'129 5.8
2016-Jun-22 03:17N 53°24' E 004°33'13 6.9
2016-Jun-22 01:26N 53°32' E 004°50'7 7.9
2016-Jun-22 00:33N 53°34' E 005°01'8 7.9
2016-Jun-21 23:33N 53°37' E 005°13'7 7.2
2016-Jun-21 22:33N 53°39' E 005°25'6 6.3
2016-Jun-21 21:33N 53°41' E 005°35'6 6.2
2016-Jun-21 20:33N 53°42' E 005°45'6 6.3
2016-Jun-21 19:33N 53°44' E 005°55'6 5.7
2016-Jun-21 18:33N 53°46' E 006°05'6 6.2
2016-Jun-21 17:33N 53°47' E 006°15'7 6.9
2016-Jun-21 16:33N 53°42' E 006°22'7 7.2
2016-Jun-21 15:33N 53°37' E 006°31'1110.9
2016-Jun-21 14:33N 53°31' E 006°46'5 5.1
2016-Jun-21 13:32N 53°27' E 006°51'0 0.0
2016-Jun-21 12:32N 53°27' E 006°51'0 0.0
2016-Jun-21 11:32N 53°27' E 006°51'0 0.0
2016-Jun-21 10:32N 53°27' E 006°51'0 0.0
2016-Jun-21 09:32N 53°27' E 006°51'0 0.0
2016-Jun-21 08:32N 53°27' E 006°51'0 0.0
2016-Jun-21 07:32N 53°27' E 006°51'0 0.0
2016-Jun-21 04:32N 53°27' E 006°51'0 0.0
2016-Jun-21 03:32N 53°27' E 006°51'0 0.0
2016-Jun-21 02:32N 53°27' E 006°51'0 0.0
2016-Jun-21 01:32N 53°27' E 006°51'0 0.0
2016-Jun-21 00:32N 53°27' E 006°51'0 0.0
2016-Jun-20 23:32N 53°27' E 006°51'0 0.0
2016-Jun-20 22:32N 53°27' E 006°51'0 0.0
2016-Jun-20 21:32N 53°27' E 006°51'0 0.0
2016-Jun-20 20:32N 53°27' E 006°51'0 0.0
2016-Jun-20 19:32N 53°27' E 006°51'0 0.0
2016-Jun-20 18:32N 53°27' E 006°51'4 3.9
2016-Jun-20 17:33N 53°25' E 006°56'5 5.3
2016-Jun-20 16:34N 53°20' E 006°56'0 0.4
2016-Jun-20 15:32N 53°20' E 006°56'0 0.0
2016-Jun-20 14:32N 53°20' E 006°56'0 0.0
2016-Jun-20 13:32N 53°20' E 006°56'0 0.0
2016-Jun-20 12:32N 53°20' E 006°56'0 0.0
2016-Jun-20 11:32N 53°20' E 006°56'0 0.0
2016-Jun-20 10:32N 53°20' E 006°56'0 0.0
2016-Jun-20 09:32N 53°20' E 006°56'0 0.0
2016-Jun-20 08:32N 53°20' E 006°56'0 0.0
2016-Jun-20 07:32N 53°20' E 006°56'0 0.0
2016-Jun-20 06:29N 53°20' E 006°56'0 0.0
2016-Jun-20 05:32N 53°20' E 006°56'0 0.0
2016-Jun-20 04:32N 53°20' E 006°56'0 0.0
2016-Jun-20 03:32N 53°20' E 006°56'0 0.0
2016-Jun-20 02:32N 53°20' E 006°56'0 0.0
2016-Jun-20 01:32N 53°20' E 006°56'0 0.0
2016-Jun-20 00:32N 53°20' E 006°56'0 0.0
2016-Jun-19 23:31N 53°20' E 006°56'0 0.0
2016-Jun-19 22:31N 53°20' E 006°56'0 0.0
2016-Jun-19 21:31N 53°20' E 006°56'0 0.0
2016-Jun-19 20:31N 53°20' E 006°56'0 0.0
2016-Jun-19 19:31N 53°20' E 006°56'0 0.0
2016-Jun-19 18:31N 53°20' E 006°56'0 0.0
2016-Jun-19 17:31N 53°20' E 006°56'0 0.0
2016-Jun-19 16:31N 53°20' E 006°56'0 0.0
2016-Jun-19 15:31N 53°20' E 006°56'0 0.0
2016-Jun-19 14:31N 53°20' E 006°56'0 0.0
2016-Jun-19 13:31N 53°20' E 006°56'0 0.0
2016-Jun-19 12:31N 53°20' E 006°56'0 0.0
2016-Jun-19 11:31N 53°20' E 006°56'0 0.0
2016-Jun-19 10:31N 53°20' E 006°56'0 0.0
2016-Jun-19 09:31N 53°20' E 006°56'0 0.0
2016-Jun-19 08:31N 53°20' E 006°56'0 0.0
2016-Jun-19 07:31N 53°20' E 006°56'0 0.0
2016-Jun-19 06:31N 53°20' E 006°56'0 0.0
2016-Jun-19 05:31N 53°20' E 006°56'0 0.0
2016-Jun-19 04:31N 53°20' E 006°56'0 0.0
2016-Jun-19 03:31N 53°20' E 006°56'0 0.0
2016-Jun-19 02:31N 53°20' E 006°56'0 0.0
2016-Jun-19 01:31N 53°20' E 006°56'0 0.0
2016-Jun-19 00:31N 53°20' E 006°56'0 0.0
2016-Jun-18 23:31N 53°20' E 006°56'0 0.0
2016-Jun-18 22:31N 53°20' E 006°56'0 0.0
2016-Jun-18 21:28N 53°20' E 006°56'0 0.0
2016-Jun-18 20:31N 53°20' E 006°56'0 0.0
2016-Jun-18 19:31N 53°20' E 006°56'0 0.0
2016-Jun-18 18:31N 53°20' E 006°56'0 0.0
2016-Jun-18 17:31N 53°20' E 006°56'0 0.0
2016-Jun-18 16:31N 53°20' E 006°56'0 0.0
2016-Jun-18 15:31N 53°20' E 006°56'0 0.0
2016-Jun-18 14:31N 53°20' E 006°56'0 0.0
2016-Jun-18 13:34N 53°20' E 006°56'0 0.0
2016-Jun-18 12:33N 53°20' E 006°56'0 0.0
2016-Jun-18 11:33N 53°20' E 006°56'0 0.0
2016-Jun-18 10:33N 53°20' E 006°56'0 0.0
2016-Jun-18 09:33N 53°20' E 006°56'0 0.0
2016-Jun-18 08:33N 53°20' E 006°56'0 0.0
2016-Jun-18 07:33N 53°20' E 006°56'0 0.0
2016-Jun-18 06:33N 53°20' E 006°56'0 0.0
2016-Jun-18 05:33N 53°20' E 006°56'0 0.0
2016-Jun-18 04:30N 53°20' E 006°56'0 0.0
2016-Jun-18 03:33N 53°20' E 006°56'0 0.0
2016-Jun-18 02:33N 53°20' E 006°56'0 0.0
2016-Jun-18 01:30N 53°20' E 006°56'0 0.0
2016-Jun-18 00:30N 53°20' E 006°56'0 0.0
2016-Jun-17 23:33N 53°20' E 006°56'0 0.0
2016-Jun-17 22:33N 53°20' E 006°56'0 0.0
2016-Jun-17 21:33N 53°20' E 006°56'0 0.0
2016-Jun-17 20:33N 53°20' E 006°56'0 0.0
2016-Jun-17 19:33N 53°20' E 006°56'0 0.0
2016-Jun-17 18:33N 53°20' E 006°56'0 0.0
2016-Jun-17 17:33N 53°20' E 006°56'0 0.0
2016-Jun-17 16:33N 53°20' E 006°56'0 0.0
2016-Jun-17 15:30N 53°20' E 006°56'0 0.0
2016-Jun-17 14:33N 53°20' E 006°56'0 0.0
2016-Jun-17 13:33N 53°20' E 006°56'0 0.0
2016-Jun-17 12:33N 53°20' E 006°56'0 0.0
2016-Jun-17 11:33N 53°20' E 006°56'0 0.0
2016-Jun-17 10:33N 53°20' E 006°56'0 0.0
2016-Jun-17 09:33N 53°20' E 006°56'0 0.0
2016-Jun-17 08:30N 53°20' E 006°56'0 0.0
2016-Jun-17 07:33N 53°20' E 006°56'0 0.0
2016-Jun-17 06:33N 53°20' E 006°56'0 0.0
2016-Jun-17 05:33N 53°20' E 006°56'0 0.0
2016-Jun-17 04:33N 53°20' E 006°56'0 0.0
2016-Jun-17 03:30N 53°20' E 006°56'0 0.0
2016-Jun-17 02:30N 53°20' E 006°56'0 0.0
2016-Jun-17 01:32N 53°20' E 006°56'0 0.0
2016-Jun-17 00:32N 53°20' E 006°56'0 0.0
2016-Jun-16 23:32N 53°20' E 006°56'0 0.0
2016-Jun-16 22:32N 53°20' E 006°56'0 0.0
2016-Jun-16 21:32N 53°20' E 006°56'0 0.0
2016-Jun-16 20:32N 53°20' E 006°56'0 0.0
2016-Jun-16 19:32N 53°20' E 006°56'0 0.0
2016-Jun-16 18:32N 53°20' E 006°56'0 0.0
2016-Jun-16 17:32N 53°20' E 006°56'0 0.0
2016-Jun-16 16:32N 53°20' E 006°56'0 0.0
2016-Jun-16 15:32N 53°20' E 006°56'0 0.0
2016-Jun-16 14:32N 53°20' E 006°56'0 0.0
2016-Jun-16 13:32N 53°20' E 006°56'0 0.0
2016-Jun-16 12:32N 53°20' E 006°56'0 0.0
2016-Jun-16 11:32N 53°20' E 006°56'0 0.0
2016-Jun-16 10:26N 53°20' E 006°56'0 0.2
2016-Jun-16 09:32N 53°20' E 006°56'3 3.4
2016-Jun-16 08:33N 53°23' E 006°58'10 9.7
2016-Jun-16 07:33N 53°30' E 006°47'8 7.7
2016-Jun-16 06:34N 53°35' E 006°37'9 9.0
2016-Jun-16 05:34N 53°37' E 006°22'8 7.7
2016-Jun-16 04:33N 53°45' E 006°20'9 9.2
2016-Jun-16 03:33N 53°54' E 006°21'9 9.3
2016-Jun-16 02:33N 54°03' E 006°20'10 9.6
2016-Jun-16 01:30N 54°13' E 006°19'  

Dump ship's entire track history